sensor_id;sensor_type;location;lat;lon;timestamp;pressure;altitude;pressure_sealevel;temperature;humidity
11212;BME280;5663;50.864;12.096;2023-03-23T00:51:56;98489.00;;;14.36;51.45
11212;BME280;5663;50.864;12.096;2023-03-23T00:54:24;98490.78;;;14.36;51.18
11212;BME280;5663;50.864;12.096;2023-03-23T00:56:53;98491.53;;;14.38;51.13
11212;BME280;5663;50.864;12.096;2023-03-23T00:59:21;98492.47;;;14.37;51.29
11212;BME280;5663;50.864;12.096;2023-03-23T01:01:49;98497.72;;;14.37;51.29
11212;BME280;5663;50.864;12.096;2023-03-23T01:04:22;98488.44;;;14.33;50.89
11212;BME280;5663;50.864;12.096;2023-03-23T01:06:52;98495.09;;;14.37;50.81
11212;BME280;5663;50.864;12.096;2023-03-23T01:09:22;98501.25;;;14.36;50.90
11212;BME280;5663;50.864;12.096;2023-03-23T01:11:54;98494.50;;;14.33;50.93
11212;BME280;5663;50.864;12.096;2023-03-23T01:14:23;98492.72;;;14.34;50.71
11212;BME280;5663;50.864;12.096;2023-03-23T01:16:52;98495.34;;;14.34;50.77
11212;BME280;5663;50.864;12.096;2023-03-23T01:19:25;98486.78;;;14.32;50.93
11212;BME280;5663;50.864;12.096;2023-03-23T01:21:59;98500.13;;;14.28;51.25
11212;BME280;5663;50.864;12.096;2023-03-23T01:24:36;98498.69;;;14.24;51.58
11212;BME280;5663;50.864;12.096;2023-03-23T01:27:12;98498.13;;;14.21;51.75
11212;BME280;5663;50.864;12.096;2023-03-23T01:29:43;98464.28;;;13.97;51.40
11212;BME280;5663;50.864;12.096;2023-03-23T01:32:11;98495.59;;;14.19;51.43
11212;BME280;5663;50.864;12.096;2023-03-23T01:34:40;98495.72;;;14.18;51.40
11212;BME280;5663;50.864;12.096;2023-03-23T01:37:17;98477.31;;;14.08;51.35
11212;BME280;5663;50.864;12.096;2023-03-23T01:39:56;98464.03;;;14.00;51.93
11212;BME280;5663;50.864;12.096;2023-03-23T01:42:31;98471.16;;;14.09;52.34
11212;BME280;5663;50.864;12.096;2023-03-23T01:45:26;98468.19;;;14.02;52.57
11212;BME280;5663;50.864;12.096;2023-03-23T01:48:00;98476.41;;;13.98;52.66
11212;BME280;5663;50.864;12.096;2023-03-23T01:50:34;98475.81;;;13.94;53.38
11212;BME280;5663;50.864;12.096;2023-03-23T03:52:54;98368.16;;;13.57;55.50
11212;BME280;5663;50.864;12.096;2023-03-23T03:55:23;98372.63;;;13.66;55.51
11212;BME280;5663;50.864;12.096;2023-03-23T03:57:50;98381.91;;;13.70;55.61
11212;BME280;5663;50.864;12.096;2023-03-23T04:00:18;98322.34;;;13.42;55.16
11212;BME280;5663;50.864;12.096;2023-03-23T04:02:48;98378.09;;;13.74;55.21
11212;BME280;5663;50.864;12.096;2023-03-23T04:05:17;98378.81;;;13.76;55.19
11212;BME280;5663;50.864;12.096;2023-03-23T04:07:46;98389.25;;;13.76;55.15
11212;BME280;5663;50.864;12.096;2023-03-23T04:10:20;98395.41;;;13.75;55.38
11212;BME280;5663;50.864;12.096;2023-03-23T04:12:48;98390.78;;;13.79;55.37
11212;BME280;5663;50.864;12.096;2023-03-23T04:15:16;98388.16;;;13.79;55.17
11212;BME280;5663;50.864;12.096;2023-03-23T04:17:44;98380.69;;;13.74;54.93
11212;BME280;5663;50.864;12.096;2023-03-23T04:20:11;98400.03;;;13.83;54.78
11212;BME280;5663;50.864;12.096;2023-03-23T04:22:44;98395.53;;;13.85;54.89
11212;BME280;5663;50.864;12.096;2023-03-23T04:25:16;98397.31;;;13.85;54.71
11212;BME280;5663;50.864;12.096;2023-03-23T04:27:49;98398.59;;;13.90;54.38
11212;BME280;5663;50.864;12.096;2023-03-23T04:30:19;98403.69;;;13.92;54.41
11212;BME280;5663;50.864;12.096;2023-03-23T04:32:48;98393.22;;;13.92;54.62
11212;BME280;5663;50.864;12.096;2023-03-23T04:35:19;98402.03;;;13.91;54.63
11212;BME280;5663;50.864;12.096;2023-03-23T04:37:48;98405.47;;;13.91;54.51
11212;BME280;5663;50.864;12.096;2023-03-23T04:40:17;98405.59;;;13.90;54.28
11212;BME280;5663;50.864;12.096;2023-03-23T04:42:44;98399.78;;;13.86;54.61
11212;BME280;5663;50.864;12.096;2023-03-23T04:45:17;98403.97;;;13.89;54.19
11212;BME280;5663;50.864;12.096;2023-03-23T04:47:48;98393.16;;;13.82;54.28
11212;BME280;5663;50.864;12.096;2023-03-23T04:50:20;98302.44;;;13.29;54.88
11212;BME280;5663;50.864;12.096;2023-03-23T06:53:23;98497.66;;;15.12;54.29
11212;BME280;5663;50.864;12.096;2023-03-23T06:55:52;98496.69;;;15.13;54.31
11212;BME280;5663;50.864;12.096;2023-03-23T06:58:21;98499.97;;;15.15;54.37
11212;BME280;5663;50.864;12.096;2023-03-23T07:00:54;98509.53;;;15.16;55.19
11212;BME280;5663;50.864;12.096;2023-03-23T07:03:28;98510.47;;;15.15;55.56
11212;BME280;5663;50.864;12.096;2023-03-23T07:05:57;98509.88;;;15.12;55.83
11212;BME280;5663;50.864;12.096;2023-03-23T07:08:26;98521.47;;;15.09;56.13
11212;BME280;5663;50.864;12.096;2023-03-23T07:10:55;98521.72;;;15.06;56.39
11212;BME280;5663;50.864;12.096;2023-03-23T07:13:23;98527.19;;;15.03;56.57
11212;BME280;5663;50.864;12.096;2023-03-23T07:15:51;98520.31;;;15.02;56.84
11212;BME280;5663;50.864;12.096;2023-03-23T07:18:20;98499.31;;;14.92;57.26
11212;BME280;5663;50.864;12.096;2023-03-23T07:20:48;98515.78;;;15.04;57.44
11212;BME280;5663;50.864;12.096;2023-03-23T07:23:18;98525.03;;;15.08;57.54
11212;BME280;5663;50.864;12.096;2023-03-23T07:25:47;98520.06;;;15.05;57.57
11212;BME280;5663;50.864;12.096;2023-03-23T07:28:15;98521.22;;;15.12;57.80
11212;BME280;5663;50.864;12.096;2023-03-23T07:30:42;98512.66;;;15.10;57.63
11212;BME280;5663;50.864;12.096;2023-03-23T07:33:10;98522.63;;;15.16;57.59
11212;BME280;5663;50.864;12.096;2023-03-23T07:35:38;98485.53;;;15.00;57.95
11212;BME280;5663;50.864;12.096;2023-03-23T07:38:06;98513.28;;;15.23;57.64
11212;BME280;5663;50.864;12.096;2023-03-23T07:40:35;98482.00;;;15.01;57.66
11212;BME280;5663;50.864;12.096;2023-03-23T07:43:04;98516.34;;;15.28;57.47
11212;BME280;5663;50.864;12.096;2023-03-23T07:45:32;98521.31;;;15.32;57.54
11212;BME280;5663;50.864;12.096;2023-03-23T07:48:00;98528.09;;;15.34;57.49
11212;BME280;5663;50.864;12.096;2023-03-23T07:50:27;98528.66;;;15.38;57.51
11212;BME280;5663;50.864;12.096;2023-03-23T07:52:56;98534.59;;;15.40;57.52
11212;BME280;5663;50.864;12.096;2023-03-23T07:55:25;98524.41;;;15.37;57.56
11212;BME280;5663;50.864;12.096;2023-03-23T07:57:53;98528.84;;;15.46;57.43
11212;BME280;5663;50.864;12.096;2023-03-23T08:00:23;98522.78;;;15.45;57.01
11212;BME280;5663;50.864;12.096;2023-03-23T08:02:53;98522.38;;;15.50;57.53
11212;BME280;5663;50.864;12.096;2023-03-23T08:05:21;98520.91;;;15.57;57.40
11212;BME280;5663;50.864;12.096;2023-03-23T08:07:50;98518.16;;;15.59;57.16
11212;BME280;5663;50.864;12.096;2023-03-23T08:10:18;98513.72;;;15.59;56.83
11212;BME280;5663;50.864;12.096;2023-03-23T08:12:51;98511.41;;;15.56;57.05
11212;BME280;5663;50.864;12.096;2023-03-23T08:15:19;98504.09;;;15.60;57.03
11212;BME280;5663;50.864;12.096;2023-03-23T08:17:49;98465.06;;;15.36;56.83
11212;BME280;5663;50.864;12.096;2023-03-23T08:20:17;98517.06;;;15.61;56.86
11212;BME280;5663;50.864;12.096;2023-03-23T08:22:50;98494.13;;;15.53;57.02
11212;BME280;5663;50.864;12.096;2023-03-23T08:25:19;98522.53;;;15.69;57.00
11212;BME280;5663;50.864;12.096;2023-03-23T08:27:47;98529.31;;;15.72;56.84
11212;BME280;5663;50.864;12.096;2023-03-23T08:30:17;98527.09;;;15.77;56.75
11212;BME280;5663;50.864;12.096;2023-03-23T08:32:46;98512.63;;;15.83;56.87
11212;BME280;5663;50.864;12.096;2023-03-23T08:35:15;98523.28;;;15.91;56.58
11212;BME280;5663;50.864;12.096;2023-03-23T08:37:43;98524.69;;;15.95;56.38
11212;BME280;5663;50.864;12.096;2023-03-23T08:40:13;98524.84;;;16.03;56.27
11212;BME280;5663;50.864;12.096;2023-03-23T08:42:43;98506.78;;;16.00;56.07
11212;BME280;5663;50.864;12.096;2023-03-23T08:45:14;98523.09;;;16.13;55.92
11212;BME280;5663;50.864;12.096;2023-03-23T08:47:44;98495.72;;;16.06;56.15
11212;BME280;5663;50.864;12.096;2023-03-23T08:50:15;98524.78;;;16.34;56.20
11212;BME280;5663;50.864;12.096;2023-03-23T08:52:43;98523.84;;;16.44;55.89
11212;BME280;5663;50.864;12.096;2023-03-23T09:56:51;98548.91;;;18.10;53.04
11212;BME280;5663;50.864;12.096;2023-03-23T09:59:23;98505.25;;;17.90;53.04
11212;BME280;5663;50.864;12.096;2023-03-23T10:01:55;98542.38;;;18.14;52.37
11212;BME280;5663;50.864;12.096;2023-03-23T10:04:30;98518.75;;;18.05;52.35
11212;BME280;5663;50.864;12.096;2023-03-23T10:07:00;98524.78;;;18.15;52.08
11212;BME280;5663;50.864;12.096;2023-03-23T10:09:32;98539.53;;;18.35;52.60
11212;BME280;5663;50.864;12.096;2023-03-23T10:12:09;98529.19;;;18.42;52.01
11212;BME280;5663;50.864;12.096;2023-03-23T10:14:54;98543.44;;;18.49;51.97
11212;BME280;5663;50.864;12.096;2023-03-23T10:17:27;98537.97;;;18.60;52.08
11212;BME280;5663;50.864;12.096;2023-03-23T10:20:04;98553.47;;;18.63;51.60
11212;BME280;5663;50.864;12.096;2023-03-23T10:22:39;98536.91;;;18.53;51.41
11212;BME280;5663;50.864;12.096;2023-03-23T10:25:16;98510.84;;;18.32;51.19
11212;BME280;5663;50.864;12.096;2023-03-23T10:27:52;98534.84;;;18.47;51.42
11212;BME280;5663;50.864;12.096;2023-03-23T10:30:25;98529.56;;;18.47;51.13
11212;BME280;5663;50.864;12.096;2023-03-23T10:32:57;98527.56;;;18.41;51.24
11212;BME280;5663;50.864;12.096;2023-03-23T10:35:33;98528.22;;;18.43;51.19
11212;BME280;5663;50.864;12.096;2023-03-23T10:38:10;98544.41;;;18.48;51.17
11212;BME280;5663;50.864;12.096;2023-03-23T10:40:52;98532.66;;;18.42;51.10
11212;BME280;5663;50.864;12.096;2023-03-23T10:43:23;98529.13;;;18.34;51.33
11212;BME280;5663;50.864;12.096;2023-03-23T10:46:02;98531.09;;;18.32;51.24
11212;BME280;5663;50.864;12.096;2023-03-23T10:48:37;98536.91;;;18.26;51.39
11212;BME280;5663;50.864;12.096;2023-03-23T10:51:09;98510.97;;;18.13;51.67
11212;BME280;5663;50.864;12.096;2023-03-23T10:53:44;98534.00;;;18.29;51.80
11212;BME280;5663;50.864;12.096;2023-03-23T10:56:22;98523.47;;;18.29;51.90
11212;BME280;5663;50.864;12.096;2023-03-23T10:58:52;98531.91;;;18.32;52.06
11212;BME280;5663;50.864;12.096;2023-03-23T11:01:30;98520.22;;;18.35;52.02
11212;BME280;5663;50.864;12.096;2023-03-23T11:03:58;98528.22;;;18.43;51.98
11212;BME280;5663;50.864;12.096;2023-03-23T11:06:30;98526.66;;;18.50;52.20
11212;BME280;5663;50.864;12.096;2023-03-23T11:09:02;98539.53;;;18.53;52.30
11212;BME280;5663;50.864;12.096;2023-03-23T11:11:36;98512.13;;;18.46;52.31
11212;BME280;5663;50.864;12.096;2023-03-23T11:14:16;98521.00;;;18.45;52.18
11212;BME280;5663;50.864;12.096;2023-03-23T11:16:45;98542.78;;;18.65;52.22
11212;BME280;5663;50.864;12.096;2023-03-23T11:19:22;98557.47;;;18.67;52.19
11212;BME280;5663;50.864;12.096;2023-03-23T11:21:52;98549.41;;;18.69;52.58
11212;BME280;5663;50.864;12.096;2023-03-23T11:24:22;98551.91;;;18.70;52.27
11212;BME280;5663;50.864;12.096;2023-03-23T11:26:51;98523.72;;;18.53;51.99
11212;BME280;5663;50.864;12.096;2023-03-23T11:29:22;98553.25;;;18.75;52.62
11212;BME280;5663;50.864;12.096;2023-03-23T11:31:52;98547.97;;;18.75;52.44
11212;BME280;5663;50.864;12.096;2023-03-23T11:34:23;98537.44;;;18.75;52.19
11212;BME280;5663;50.864;12.096;2023-03-23T11:36:53;98555.97;;;18.83;52.34
11212;BME280;5663;50.864;12.096;2023-03-23T11:39:24;98560.41;;;18.82;52.00
11212;BME280;5663;50.864;12.096;2023-03-23T11:41:52;98570.81;;;18.84;52.05
11212;BME280;5663;50.864;12.096;2023-03-23T11:44:24;98549.97;;;18.73;51.76
11212;BME280;5663;50.864;12.096;2023-03-23T11:46:59;98544.41;;;18.76;51.82
11212;BME280;5663;50.864;12.096;2023-03-23T11:49:37;98546.06;;;18.67;51.59
11212;BME280;5663;50.864;12.096;2023-03-23T11:52:13;98564.66;;;18.65;51.42
11212;BME280;5663;50.864;12.096;2023-03-23T11:54:46;98548.19;;;18.63;51.96
11212;BME280;5663;50.864;12.096;2023-03-23T11:57:17;98544.13;;;18.69;51.89
11212;BME280;5663;50.864;12.096;2023-03-23T11:59:46;98548.69;;;18.77;51.66
11212;BME280;5663;50.864;12.096;2023-03-23T12:02:30;98544.41;;;18.76;51.83
11212;BME280;5663;50.864;12.096;2023-03-23T12:05:25;98539.84;;;18.86;51.05
11212;BME280;5663;50.864;12.096;2023-03-23T12:08:05;98545.66;;;18.89;51.24
11212;BME280;5663;50.864;12.096;2023-03-23T12:10:42;98541.75;;;18.93;50.80
11212;BME280;5663;50.864;12.096;2023-03-23T12:13:35;98556.97;;;19.00;50.61
11212;BME280;5663;50.864;12.096;2023-03-23T12:16:13;98555.59;;;18.95;50.57
11212;BME280;5663;50.864;12.096;2023-03-23T12:18:51;98549.19;;;18.98;50.14
11212;BME280;5663;50.864;12.096;2023-03-23T12:21:28;98555.44;;;18.97;49.76
11212;BME280;5663;50.864;12.096;2023-03-23T12:24:08;98558.78;;;18.99;49.31
11212;BME280;5663;50.864;12.096;2023-03-23T12:26:43;98562.38;;;18.98;49.37
11212;BME280;5663;50.864;12.096;2023-03-23T12:29:30;98533.25;;;18.82;49.42
11212;BME280;5663;50.864;12.096;2023-03-23T12:32:28;98540.31;;;18.81;49.13
11212;BME280;5663;50.864;12.096;2023-03-23T12:35:05;98542.88;;;18.91;49.61
11212;BME280;5663;50.864;12.096;2023-03-23T12:37:48;98532.03;;;18.94;49.29
11212;BME280;5663;50.864;12.096;2023-03-23T12:40:29;98540.31;;;18.99;49.06
11212;BME280;5663;50.864;12.096;2023-03-23T12:43:05;98536.41;;;19.03;48.73
11212;BME280;5663;50.864;12.096;2023-03-23T12:45:53;98542.09;;;19.16;48.19
11212;BME280;5663;50.864;12.096;2023-03-23T12:48:25;98558.28;;;19.22;48.81
11212;BME280;5663;50.864;12.096;2023-03-23T12:51:14;98557.97;;;19.25;48.55
11212;BME280;5663;50.864;12.096;2023-03-23T12:53:50;98556.78;;;19.19;48.52
11212;BME280;5663;50.864;12.096;2023-03-23T15:59:02;98555.75;;;17.56;52.53
11212;BME280;5663;50.864;12.096;2023-03-23T16:01:32;98551.44;;;17.55;52.53
11212;BME280;5663;50.864;12.096;2023-03-23T16:04:03;98543.56;;;17.55;52.57
11212;BME280;5663;50.864;12.096;2023-03-23T16:06:33;98538.72;;;17.51;52.72
11212;BME280;5663;50.864;12.096;2023-03-23T16:09:03;98547.75;;;17.48;52.87
11212;BME280;5663;50.864;12.096;2023-03-23T16:11:31;98553.13;;;17.46;52.98
11212;BME280;5663;50.864;12.096;2023-03-23T16:14:01;98541.94;;;17.44;52.83
11212;BME280;5663;50.864;12.096;2023-03-23T16:16:30;98537.50;;;17.45;52.61
11212;BME280;5663;50.864;12.096;2023-03-23T16:18:58;98548.03;;;17.45;52.74
11212;BME280;5663;50.864;12.096;2023-03-23T16:21:26;98562.41;;;17.41;52.89
11212;BME280;5663;50.864;12.096;2023-03-23T16:23:53;98568.22;;;17.44;52.89
11212;BME280;5663;50.864;12.096;2023-03-23T16:26:22;98556.34;;;17.31;52.88
11212;BME280;5663;50.864;12.096;2023-03-23T16:28:50;98575.69;;;17.39;53.21
11212;BME280;5663;50.864;12.096;2023-03-23T16:31:19;98582.91;;;17.37;53.05
11212;BME280;5663;50.864;12.096;2023-03-23T16:33:46;98554.00;;;17.18;53.08
11212;BME280;5663;50.864;12.096;2023-03-23T16:36:14;98572.81;;;17.23;53.25
11212;BME280;5663;50.864;12.096;2023-03-23T16:38:43;98574.03;;;17.19;53.25
11212;BME280;5663;50.864;12.096;2023-03-23T16:41:11;98574.22;;;17.08;53.47
11212;BME280;5663;50.864;12.096;2023-03-23T16:43:40;98589.56;;;17.12;53.91
11212;BME280;5663;50.864;12.096;2023-03-23T16:46:10;98600.06;;;17.22;53.74
11212;BME280;5663;50.864;12.096;2023-03-23T16:48:42;98603.25;;;17.26;53.84
11212;BME280;5663;50.864;12.096;2023-03-23T16:51:12;98598.97;;;17.24;53.73
11212;BME280;5663;50.864;12.096;2023-03-23T16:53:40;98606.13;;;17.22;54.00
11212;BME280;5663;50.864;12.096;2023-03-23T16:56:07;98604.75;;;17.18;54.16
11212;BME280;5663;50.864;12.096;2023-03-23T17:57:24;98587.63;;;15.95;56.88
11212;BME280;5663;50.864;12.096;2023-03-23T17:59:52;98584.56;;;15.90;56.97
11212;BME280;5663;50.864;12.096;2023-03-23T18:02:23;98554.22;;;15.66;57.04
11212;BME280;5663;50.864;12.096;2023-03-23T18:04:50;98567.75;;;15.71;57.21
11212;BME280;5663;50.864;12.096;2023-03-23T18:07:21;98588.66;;;15.83;57.35
11212;BME280;5663;50.864;12.096;2023-03-23T18:09:49;98588.09;;;15.79;57.43
11212;BME280;5663;50.864;12.096;2023-03-23T18:12:16;98548.59;;;15.50;57.53
11212;BME280;5663;50.864;12.096;2023-03-23T18:14:46;98581.41;;;15.65;57.68
11212;BME280;5663;50.864;12.096;2023-03-23T18:17:14;98585.22;;;15.61;57.75
11212;BME280;5663;50.864;12.096;2023-03-23T18:19:43;98584.63;;;15.58;58.01
11212;BME280;5663;50.864;12.096;2023-03-23T18:22:12;98576.91;;;15.56;58.01
11212;BME280;5663;50.864;12.096;2023-03-23T18:24:40;98566.81;;;15.51;58.27
11212;BME280;5663;50.864;12.096;2023-03-23T18:27:08;98566.81;;;15.51;58.18
11212;BME280;5663;50.864;12.096;2023-03-23T18:29:36;98566.50;;;15.45;58.51
11212;BME280;5663;50.864;12.096;2023-03-23T18:32:05;98571.84;;;15.43;58.61
11212;BME280;5663;50.864;12.096;2023-03-23T18:34:33;98579.59;;;15.45;58.64
11212;BME280;5663;50.864;12.096;2023-03-23T18:37:01;98576.41;;;15.41;58.84
11212;BME280;5663;50.864;12.096;2023-03-23T18:39:30;98580.09;;;15.39;58.98
11212;BME280;5663;50.864;12.096;2023-03-23T18:41:59;98565.16;;;15.30;58.92
11212;BME280;5663;50.864;12.096;2023-03-23T18:44:27;98578.13;;;15.31;58.94
11212;BME280;5663;50.864;12.096;2023-03-23T18:46:55;98540.19;;;15.05;59.17
11212;BME280;5663;50.864;12.096;2023-03-23T18:49:24;98576.72;;;15.27;59.30
11212;BME280;5663;50.864;12.096;2023-03-23T18:51:53;98580.69;;;15.21;59.30
11212;BME280;5663;50.864;12.096;2023-03-23T18:54:21;98579.97;;;15.19;59.50
11212;BME280;5663;50.864;12.096;2023-03-23T18:56:48;98580.34;;;15.15;59.69
11212;BME280;5663;50.864;12.096;2023-03-23T22:01:27;98541.00;;;13.28;63.96
11212;BME280;5663;50.864;12.096;2023-03-23T22:03:56;98546.47;;;13.25;64.14
11212;BME280;5663;50.864;12.096;2023-03-23T22:06:24;98543.31;;;13.20;64.13
11212;BME280;5663;50.864;12.096;2023-03-23T22:08:53;98526.91;;;13.07;64.48
11212;BME280;5663;50.864;12.096;2023-03-23T22:11:23;98535.22;;;13.12;64.73
11212;BME280;5663;50.864;12.096;2023-03-23T22:13:53;98500.28;;;12.91;64.72
11212;BME280;5663;50.864;12.096;2023-03-23T22:16:22;98531.69;;;13.13;64.94
11212;BME280;5663;50.864;12.096;2023-03-23T22:18:52;98528.13;;;13.14;64.98
11212;BME280;5663;50.864;12.096;2023-03-23T22:21:22;98529.78;;;13.15;64.93
11212;BME280;5663;50.864;12.096;2023-03-23T22:23:51;98519.47;;;13.14;65.05
11212;BME280;5663;50.864;12.096;2023-03-23T22:26:19;98517.66;;;13.14;65.14
11212;BME280;5663;50.864;12.096;2023-03-23T22:28:47;98512.44;;;13.14;65.28
11212;BME280;5663;50.864;12.096;2023-03-23T22:31:17;98507.00;;;13.17;65.64
11212;BME280;5663;50.864;12.096;2023-03-23T22:33:48;98497.00;;;13.11;65.64
11212;BME280;5663;50.864;12.096;2023-03-23T22:36:17;98497.63;;;13.15;65.69
11212;BME280;5663;50.864;12.096;2023-03-23T22:38:45;98499.03;;;13.19;65.56
11212;BME280;5663;50.864;12.096;2023-03-23T22:41:16;98492.03;;;13.19;65.65
11212;BME280;5663;50.864;12.096;2023-03-23T22:43:44;98493.59;;;13.22;65.63
11212;BME280;5663;50.864;12.096;2023-03-23T22:46:12;98496.22;;;13.22;65.87
11212;BME280;5663;50.864;12.096;2023-03-23T22:48:40;98483.25;;;13.20;65.72
11212;BME280;5663;50.864;12.096;2023-03-23T22:51:08;98464.25;;;13.07;65.58
11212;BME280;5663;50.864;12.096;2023-03-23T22:53:39;98475.78;;;13.16;65.86
11212;BME280;5663;50.864;12.096;2023-03-23T22:56:08;98465.47;;;13.14;65.70
11212;BME280;5663;50.864;12.096;2023-03-23T22:58:37;98454.78;;;13.06;66.09
11212;BME280;5663;50.864;12.096;2023-03-23T23:01:07;98437.44;;;12.94;65.96
11212;BME280;5663;50.864;12.096;2023-03-23T23:03:35;98457.16;;;13.09;66.01
11212;BME280;5663;50.864;12.096;2023-03-23T23:06:04;98456.66;;;13.04;66.46
11212;BME280;5663;50.864;12.096;2023-03-23T23:08:33;98455.22;;;13.00;66.21
11212;BME280;5663;50.864;12.096;2023-03-23T23:11:03;98436.22;;;12.87;66.60
11212;BME280;5663;50.864;12.096;2023-03-23T23:13:32;98441.00;;;12.93;66.47
11212;BME280;5663;50.864;12.096;2023-03-23T23:16:00;98452.25;;;12.93;66.56
11212;BME280;5663;50.864;12.096;2023-03-23T23:18:29;98453.31;;;12.91;66.68
11212;BME280;5663;50.864;12.096;2023-03-23T23:21:00;98443.81;;;12.90;66.88
11212;BME280;5663;50.864;12.096;2023-03-23T23:23:28;98421.28;;;12.77;66.61
11212;BME280;5663;50.864;12.096;2023-03-23T23:25:57;98366.63;;;12.41;66.60
11212;BME280;5663;50.864;12.096;2023-03-23T23:28:26;98428.16;;;12.78;67.20
11212;BME280;5663;50.864;12.096;2023-03-23T23:30:56;98441.56;;;12.85;67.06
11212;BME280;5663;50.864;12.096;2023-03-23T23:33:25;98427.66;;;12.85;66.95
11212;BME280;5663;50.864;12.096;2023-03-23T23:35:53;98426.00;;;12.83;67.14
11212;BME280;5663;50.864;12.096;2023-03-23T23:38:21;98416.50;;;12.71;67.13
11212;BME280;5663;50.864;12.096;2023-03-23T23:40:50;98423.31;;;12.85;67.34
11212;BME280;5663;50.864;12.096;2023-03-23T23:43:18;98398.72;;;12.76;67.47
11212;BME280;5663;50.864;12.096;2023-03-23T23:45:47;98422.44;;;12.85;67.38
11212;BME280;5663;50.864;12.096;2023-03-23T23:48:16;98416.41;;;12.84;67.33
